createdAt,value
2018-01-08T00:00:01.172Z,62.90
2018-01-08T00:02:35.208Z,62.90
2018-01-08T00:05:09.610Z,63.10
2018-01-08T00:07:43.535Z,62.70
2018-01-08T00:10:20.286Z,62.60
2018-01-08T00:12:54.219Z,62.80
2018-01-08T00:15:28.024Z,62.90
2018-01-08T00:18:01.799Z,63.00
2018-01-08T00:20:36.427Z,63.40
2018-01-08T00:23:10.364Z,63.30
2018-01-08T00:25:44.135Z,63.00
2018-01-08T00:28:18.763Z,62.70
2018-01-08T00:30:52.572Z,62.70
2018-01-08T00:33:26.987Z,63.30
2018-01-08T00:36:01.645Z,63.10
2018-01-08T00:38:35.220Z,63.10
2018-01-08T00:41:09.974Z,63.10
2018-01-08T00:43:43.778Z,62.90
2018-01-08T00:46:17.518Z,62.80
2018-01-08T00:48:51.492Z,62.80
2018-01-08T00:51:25.268Z,62.60
2018-01-08T00:53:59.211Z,63.00
2018-01-08T00:56:33.698Z,63.00
2018-01-08T00:59:07.535Z,63.00
2018-01-08T01:01:41.135Z,63.00
2018-01-08T01:04:14.941Z,63.30
2018-01-08T01:06:48.849Z,62.90
2018-01-08T01:09:22.423Z,62.90
2018-01-08T01:11:57.075Z,63.10
2018-01-08T01:14:30.984Z,63.10
2018-01-08T01:17:04.759Z,63.10
2018-01-08T01:19:38.666Z,63.20
2018-01-08T01:22:12.708Z,63.00
2018-01-08T01:24:46.514Z,63.20
2018-01-08T01:27:20.174Z,63.10
2018-01-08T01:29:54.819Z,62.90
2018-01-08T01:32:28.750Z,62.80
2018-01-08T01:35:03.180Z,62.90
2018-01-08T01:37:36.976Z,62.90
2018-01-08T01:40:10.782Z,63.00
2018-01-08T01:42:45.919Z,63.70
2018-01-08T01:45:19.595Z,62.90
2018-01-08T01:47:53.299Z,62.80
2018-01-08T01:50:26.994Z,62.90
2018-01-08T01:53:01.756Z,62.90
2018-01-08T01:55:35.427Z,62.90
2018-01-08T01:58:09.131Z,62.80
2018-01-08T02:00:42.732Z,62.80
2018-01-08T02:03:16.569Z,63.20
2018-01-08T02:05:50.376Z,63.30
2018-01-08T02:08:24.180Z,63.00
2018-01-08T02:10:57.955Z,63.30
2018-01-08T02:13:32.581Z,63.30
2018-01-08T02:16:06.283Z,63.20
2018-01-08T02:18:39.991Z,63.20
2018-01-08T02:21:13.895Z,63.50
2018-01-08T02:23:47.707Z,62.90
2018-01-08T02:26:21.640Z,63.30
2018-01-08T02:28:55.549Z,63.20
2018-01-08T02:31:30.143Z,63.20
2018-01-08T02:34:03.980Z,63.10
2018-01-08T02:36:38.580Z,63.20
2018-01-08T02:39:12.187Z,63.20
2018-01-08T02:41:46.932Z,63.40
2018-01-08T02:44:21.531Z,63.40
2018-01-08T02:46:55.466Z,63.40
2018-01-08T02:49:29.856Z,63.00
2018-01-08T02:52:03.603Z,63.20
2018-01-08T02:54:37.974Z,63.20
2018-01-08T02:57:11.684Z,63.10
2018-01-08T02:59:45.382Z,63.10
2018-01-08T03:02:19.299Z,63.20
2018-01-08T03:04:53.918Z,63.30
2018-01-08T03:07:28.542Z,63.30
2018-01-08T03:10:02.347Z,63.20
2018-01-08T03:12:36.083Z,63.10
2018-01-08T03:15:10.094Z,63.30
2018-01-08T03:17:44.615Z,63.30
2018-01-08T03:20:18.626Z,63.30
2018-01-08T03:22:52.329Z,63.20
2018-01-08T03:25:26.340Z,63.50
2018-01-08T03:28:00.039Z,63.10
2018-01-08T03:30:34.639Z,63.40
2018-01-08T03:33:08.577Z,63.40
2018-01-08T03:35:42.155Z,63.60
2018-01-08T03:38:16.802Z,63.30
2018-01-08T03:40:50.579Z,63.30
2018-01-08T03:43:24.387Z,63.20
2018-01-08T03:45:58.220Z,63.40
2018-01-08T03:48:32.026Z,63.20
2018-01-08T03:51:06.624Z,63.20
2018-01-08T03:53:40.251Z,63.20
2018-01-08T03:56:13.955Z,63.30
2018-01-08T03:58:47.965Z,63.80
2018-01-08T04:01:21.668Z,63.50
2018-01-08T04:03:55.576Z,63.40
2018-01-08T04:06:29.355Z,63.70
2018-01-08T04:09:03.290Z,63.60
2018-01-08T04:11:37.096Z,63.40
2018-01-08T04:14:10.874Z,63.30
2018-01-08T04:16:44.707Z,63.30
2018-01-08T04:19:18.616Z,63.20
2018-01-08T04:21:52.524Z,64.00
2018-01-08T04:24:26.051Z,63.40
2018-01-08T04:27:00.623Z,63.40
2018-01-08T04:29:35.407Z,63.30
2018-01-08T04:32:09.180Z,63.30
2018-01-08T04:34:42.883Z,63.20
2018-01-08T04:37:16.664Z,63.20
2018-01-08T04:39:50.610Z,63.40
2018-01-08T04:42:24.507Z,63.20
2018-01-08T04:44:58.313Z,63.00
2018-01-08T04:47:33.038Z,63.10
2018-01-08T04:50:06.742Z,63.00
2018-01-08T04:52:40.548Z,63.20
2018-01-08T04:55:14.456Z,63.30
2018-01-08T04:57:48.366Z,63.20
2018-01-08T05:00:22.170Z,62.90
2018-01-08T05:02:56.078Z,63.00
2018-01-08T05:05:30.600Z,63.20
2018-01-08T05:08:04.407Z,63.20
2018-01-08T05:10:38.314Z,63.10
2018-01-08T05:13:12.121Z,63.10
2018-01-08T05:15:45.930Z,63.10
2018-01-08T05:18:19.663Z,63.10
2018-01-08T05:20:53.540Z,63.20
2018-01-08T05:23:27.445Z,63.00
2018-01-08T05:26:01.354Z,63.00
2018-01-08T05:28:35.262Z,63.00
2018-01-08T05:31:09.068Z,63.20
2018-01-08T05:33:42.910Z,63.00
2018-01-08T05:36:16.884Z,63.10
2018-01-08T05:38:50.689Z,63.10
2018-01-08T05:41:24.495Z,63.20
2018-01-08T05:43:58.482Z,62.90
2018-01-08T05:46:32.516Z,63.00
2018-01-08T05:49:07.142Z,63.10
2018-01-08T05:51:41.739Z,62.90
2018-01-08T05:54:15.547Z,62.90
2018-01-08T05:56:49.378Z,62.90
2018-01-08T05:59:23.185Z,62.70
2018-01-08T06:01:56.887Z,62.80
2018-01-08T06:04:31.483Z,63.00
2018-01-08T06:07:06.110Z,62.80
2018-01-08T06:09:40.045Z,62.70
2018-01-08T06:12:14.772Z,63.20
2018-01-08T06:14:48.578Z,63.00
2018-01-08T06:17:23.197Z,63.20
2018-01-08T06:19:56.804Z,63.10
2018-01-08T06:22:30.690Z,62.90
2018-01-08T06:25:04.491Z,63.00
2018-01-08T06:27:39.119Z,63.10
2018-01-08T06:30:13.052Z,62.90
2018-01-08T06:32:46.827Z,63.40
2018-01-08T06:35:20.662Z,62.90
2018-01-08T06:37:55.164Z,63.50
2018-01-08T06:40:28.965Z,62.70
2018-01-08T06:43:02.695Z,62.60
2018-01-08T06:45:37.191Z,62.80
2018-01-08T06:48:11.125Z,62.70
2018-01-08T06:50:45.749Z,62.60
2018-01-08T06:53:19.555Z,62.60
2018-01-08T06:55:53.361Z,62.70
2018-01-08T06:58:27.269Z,62.60
2018-01-08T07:01:00.788Z,62.60
2018-01-08T07:03:34.547Z,62.50
2018-01-08T07:06:08.481Z,62.40
2018-01-08T07:08:42.463Z,62.70
2018-01-08T07:11:16.298Z,63.00
2018-01-08T07:13:50.787Z,62.80
2018-01-08T07:16:24.496Z,62.70
2018-01-08T07:18:58.403Z,62.80
2018-01-08T07:21:32.340Z,62.70
2018-01-08T07:24:06.935Z,62.70
2018-01-08T07:26:40.771Z,62.70
2018-01-08T07:29:15.059Z,62.50
2018-01-08T07:31:48.790Z,62.40
2018-01-08T07:34:22.699Z,62.70
2018-01-08T07:36:56.483Z,63.40
2018-01-08T07:39:31.130Z,62.70
2018-01-08T07:42:04.732Z,62.60
2018-01-08T07:44:39.332Z,62.70
2018-01-08T07:47:13.102Z,62.60
2018-01-08T07:49:46.871Z,62.60
2018-01-08T07:52:21.491Z,62.50
2018-01-08T07:54:56.091Z,62.40
2018-01-08T07:57:29.921Z,62.20
2018-01-08T08:00:03.728Z,62.40
2018-01-08T08:02:37.533Z,62.70
2018-01-08T08:05:11.167Z,62.80
2018-01-08T08:07:44.906Z,62.70
2018-01-08T08:10:18.619Z,62.70
2018-01-08T08:12:53.268Z,62.40
2018-01-08T08:15:27.176Z,62.40
2018-01-08T08:18:01.676Z,62.50
2018-01-08T08:20:35.402Z,62.40
2018-01-08T08:23:09.999Z,62.50
2018-01-08T08:25:43.833Z,62.50
2018-01-08T08:28:17.507Z,62.60
2018-01-08T08:30:51.211Z,62.40
2018-01-08T08:33:25.147Z,62.60
2018-01-08T08:35:59.023Z,62.60
2018-01-08T08:38:32.936Z,61.40
2018-01-08T08:41:06.668Z,62.40
2018-01-08T08:43:40.575Z,62.30
2018-01-08T08:46:14.351Z,62.50
2018-01-08T08:48:48.159Z,62.20
2018-01-08T08:51:22.666Z,62.60
2018-01-08T08:53:56.279Z,62.30
2018-01-08T08:56:30.088Z,62.30
2018-01-08T08:59:03.992Z,62.30
2018-01-08T09:01:37.931Z,62.60
2018-01-08T09:04:12.427Z,62.50
2018-01-08T09:06:46.568Z,62.40
2018-01-08T09:09:20.374Z,62.30
2018-01-08T09:11:54.147Z,62.60
2018-01-08T09:14:28.029Z,62.50
2018-01-08T09:17:01.894Z,62.30
2018-01-08T09:19:35.801Z,62.60
2018-01-08T09:22:10.295Z,62.50
2018-01-08T09:24:44.920Z,62.80
2018-01-08T09:27:18.754Z,62.80
2018-01-08T09:29:52.631Z,62.20
2018-01-08T09:32:26.372Z,62.50
2018-01-08T09:35:01.096Z,62.60
2018-01-08T09:37:35.074Z,62.50
2018-01-08T09:40:09.707Z,62.40
2018-01-08T09:42:44.353Z,62.90
2018-01-08T09:45:19.080Z,62.50
2018-01-08T09:47:52.886Z,62.50
2018-01-08T09:50:26.692Z,62.80
2018-01-08T09:53:00.703Z,63.10
2018-01-08T09:55:34.614Z,62.70
2018-01-08T09:58:08.520Z,62.40
2018-01-08T10:00:42.291Z,62.70
2018-01-08T10:03:28.087Z,62.70
2018-01-08T10:06:14.001Z,62.80
2018-01-08T10:09:00.299Z,62.60
2018-01-08T10:11:45.950Z,62.90
2018-01-08T10:14:31.975Z,62.90
2018-01-08T10:17:17.422Z,62.60
2018-01-08T10:19:59.511Z,62.90
2018-01-08T10:22:33.360Z,62.70
2018-01-08T10:25:07.370Z,62.90
2018-01-08T10:27:41.791Z,63.20
2018-01-08T10:30:15.698Z,63.10
2018-01-08T10:32:50.195Z,63.10
2018-01-08T10:35:24.129Z,63.10
2018-01-08T10:37:57.935Z,62.90
2018-01-08T10:40:31.611Z,62.80
2018-01-08T10:43:12.100Z,63.10
2018-01-08T10:45:51.743Z,63.10
2018-01-08T10:48:31.590Z,63.20
2018-01-08T10:51:10.955Z,63.50
2018-01-08T10:53:47.394Z,63.20
2018-01-08T10:56:21.276Z,63.20
2018-01-08T10:58:55.799Z,63.40
2018-01-08T11:01:35.291Z,63.40
2018-01-08T11:04:09.750Z,63.40
2018-01-08T11:06:44.307Z,64.00
2018-01-08T11:09:18.904Z,63.30
2018-01-08T11:11:52.603Z,63.30
2018-01-08T11:14:26.646Z,63.20
2018-01-08T11:17:00.349Z,63.00
2018-01-08T11:19:34.975Z,63.20
2018-01-08T11:22:08.753Z,63.20
2018-01-08T11:24:43.271Z,63.40
2018-01-08T11:27:17.006Z,63.20
2018-01-08T11:29:50.778Z,63.40
2018-01-08T11:32:24.620Z,63.10
2018-01-08T11:34:58.287Z,63.40
2018-01-08T11:37:32.127Z,64.00
2018-01-08T11:40:06.137Z,63.50
2018-01-08T11:42:39.816Z,63.60
2018-01-08T11:45:13.853Z,63.70
2018-01-08T11:47:47.657Z,63.40
2018-01-08T11:50:22.043Z,63.90
2018-01-08T11:52:55.886Z,63.30
2018-01-08T11:55:30.406Z,63.30
2018-01-08T11:58:04.287Z,63.20
2018-01-08T12:00:38.938Z,63.60
2018-01-08T12:03:12.949Z,63.60
2018-01-08T12:05:46.857Z,63.40
2018-01-08T12:08:21.206Z,63.60
2018-01-08T12:10:55.162Z,63.90
2018-01-08T12:13:28.992Z,63.70
2018-01-08T12:16:03.923Z,63.60
2018-01-08T12:18:37.933Z,63.60
2018-01-08T12:21:11.842Z,63.60
2018-01-08T12:23:45.852Z,63.80
2018-01-08T12:26:20.375Z,64.20
2018-01-08T12:28:54.159Z,63.60
2018-01-08T12:31:27.959Z,64.20
2018-01-08T12:34:01.997Z,63.90
2018-01-08T12:36:35.809Z,63.60
2018-01-08T12:39:09.813Z,64.30
2018-01-08T12:41:43.618Z,63.50
2018-01-08T12:44:18.243Z,63.80
2018-01-08T12:46:52.152Z,63.80
2018-01-08T12:49:25.958Z,64.00
2018-01-08T12:51:59.747Z,63.90
2018-01-08T12:54:33.570Z,63.80
2018-01-08T12:57:07.478Z,63.70
2018-01-08T12:59:41.283Z,63.50
2018-01-08T13:02:15.062Z,63.90
2018-01-08T13:04:49.015Z,63.90
2018-01-08T13:07:24.000Z,63.70
2018-01-08T13:09:57.745Z,63.60
2018-01-08T13:12:32.331Z,63.80
2018-01-08T13:15:07.189Z,63.90
2018-01-08T13:17:40.893Z,63.80
2018-01-08T13:20:15.722Z,63.80
2018-01-08T13:22:50.318Z,63.80
2018-01-08T13:25:24.051Z,63.80
2018-01-08T13:27:58.750Z,63.90
2018-01-08T13:30:32.686Z,63.80
2018-01-08T13:33:06.697Z,63.10
2018-01-08T13:35:40.708Z,63.80
2018-01-08T13:38:15.099Z,63.90
2018-01-08T13:40:49.014Z,63.90
2018-01-08T13:43:22.811Z,63.90
2018-01-08T13:45:57.331Z,63.80
2018-01-08T13:48:31.276Z,63.80
2018-01-08T13:51:05.871Z,63.80
2018-01-08T13:53:39.805Z,63.80
2018-01-08T13:56:14.533Z,64.10
2018-01-08T13:58:48.237Z,63.40
2018-01-08T14:01:22.041Z,64.20
2018-01-08T14:03:55.919Z,63.70
2018-01-08T14:06:29.655Z,63.80
2018-01-08T14:09:04.381Z,63.80
2018-01-08T14:11:38.903Z,63.60
2018-01-08T14:14:12.811Z,64.00
2018-01-08T14:16:46.616Z,64.10
2018-01-08T14:19:20.422Z,64.10
2018-01-08T14:21:55.150Z,63.90
2018-01-08T14:24:29.775Z,64.10
2018-01-08T14:27:03.581Z,64.10
2018-01-08T14:29:37.489Z,63.70
2018-01-08T14:32:11.194Z,63.90
2018-01-08T14:34:44.971Z,64.20
2018-01-08T14:37:18.775Z,64.00
2018-01-08T14:39:53.299Z,64.70
2018-01-08T14:42:27.923Z,63.80
2018-01-08T14:45:01.757Z,63.80
2018-01-08T14:47:35.531Z,63.70
2018-01-08T14:50:09.443Z,63.10
2018-01-08T14:52:44.095Z,64.20
2018-01-08T14:55:18.619Z,64.10
2018-01-08T14:57:52.424Z,64.10
2018-01-08T15:00:26.231Z,64.40
2018-01-08T15:03:00.727Z,64.00
2018-01-08T15:05:34.661Z,64.00
2018-01-08T15:08:08.466Z,64.00
2018-01-08T15:10:42.375Z,63.90
2018-01-08T15:13:16.078Z,63.60
2018-01-08T15:15:49.965Z,64.10
2018-01-08T15:18:23.792Z,63.80
2018-01-08T15:20:57.699Z,63.90
2018-01-08T15:23:31.610Z,63.80
2018-01-08T15:26:06.338Z,63.90
2018-01-08T15:28:40.243Z,63.90
2018-01-08T15:31:14.152Z,63.70
2018-01-08T15:33:48.543Z,63.70
2018-01-08T15:36:22.243Z,63.60
2018-01-08T15:38:55.931Z,63.50
2018-01-08T15:41:29.787Z,63.80
2018-01-08T15:44:04.511Z,63.60
2018-01-08T15:46:38.291Z,63.70
2018-01-08T15:49:12.811Z,63.50
2018-01-08T15:51:46.543Z,63.40
2018-01-08T15:54:20.451Z,63.70
2018-01-08T15:56:54.359Z,64.00
2018-01-08T15:59:28.135Z,63.40
2018-01-08T16:02:01.971Z,63.40
2018-01-08T16:04:36.482Z,63.40
2018-01-08T16:07:10.208Z,63.40
2018-01-08T16:09:44.079Z,63.40
2018-01-08T16:12:18.116Z,63.60
2018-01-08T16:14:52.536Z,63.20
2018-01-08T16:17:27.131Z,63.10
2018-01-08T16:20:01.764Z,63.20
2018-01-08T16:22:35.591Z,63.10
2018-01-08T16:25:09.397Z,63.30
2018-01-08T16:27:43.219Z,63.20
2018-01-08T16:30:17.799Z,63.20
2018-01-08T16:32:51.605Z,63.20
2018-01-08T16:35:25.459Z,63.40
2018-01-08T16:37:59.348Z,63.10
2018-01-08T16:40:33.944Z,63.70
2018-01-08T16:43:07.881Z,63.00
2018-01-08T16:45:41.789Z,62.70
2018-01-08T16:48:15.697Z,63.20
2018-01-08T16:50:49.503Z,63.10
2018-01-08T16:53:23.207Z,63.20
2018-01-08T16:55:56.915Z,63.10
2018-01-08T16:58:30.818Z,63.30
2018-01-08T17:01:05.927Z,63.20
2018-01-08T17:03:39.631Z,63.20
2018-01-08T17:06:13.535Z,63.10
2018-01-08T17:08:47.372Z,63.20
2018-01-08T17:11:21.051Z,63.30
2018-01-08T17:13:55.803Z,63.30
2018-01-08T17:16:30.120Z,63.30
2018-01-08T17:19:03.824Z,63.20
2018-01-08T17:21:38.319Z,63.20
2018-01-08T17:24:12.870Z,63.60
2018-01-08T17:26:47.597Z,63.10
2018-01-08T17:29:21.391Z,63.10
2018-01-08T17:31:55.208Z,63.30
2018-01-08T17:34:29.833Z,63.70
2018-01-08T17:37:04.457Z,63.00
2018-01-08T17:39:38.238Z,63.00
2018-01-08T17:42:12.888Z,63.00
2018-01-08T17:44:46.796Z,62.90
2018-01-08T17:47:20.471Z,63.10
2018-01-08T17:49:54.203Z,63.00
2018-01-08T17:52:28.009Z,63.10
2018-01-08T17:55:01.786Z,63.10
2018-01-08T17:57:35.722Z,63.00
2018-01-08T18:00:09.529Z,63.20
2018-01-08T18:02:43.437Z,63.00
2018-01-08T18:05:17.314Z,63.10
2018-01-08T18:07:51.091Z,63.30
2018-01-08T18:10:24.853Z,63.50
2018-01-08T18:12:59.581Z,63.10
2018-01-08T18:15:33.489Z,62.90
2018-01-08T18:18:07.398Z,62.90
2018-01-08T18:20:41.175Z,63.00
2018-01-08T18:23:14.770Z,63.00
2018-01-08T18:25:49.430Z,62.90
2018-01-08T18:28:23.208Z,62.90
2018-01-08T18:30:57.116Z,62.90
2018-01-08T18:33:31.055Z,62.90
2018-01-08T18:36:05.558Z,62.90
2018-01-08T18:38:39.404Z,62.90
2018-01-08T18:41:13.283Z,62.80
2018-01-08T18:43:46.995Z,63.00
2018-01-08T18:46:21.613Z,62.70
2018-01-08T18:48:56.240Z,62.80
2018-01-08T18:51:29.911Z,62.80
2018-01-08T18:54:03.807Z,62.80
2018-01-08T18:56:37.543Z,62.90
2018-01-08T18:59:11.974Z,62.80
2018-01-08T19:01:45.828Z,62.70
2018-01-08T19:04:20.439Z,62.80
2018-01-08T19:06:54.301Z,62.80
2018-01-08T19:09:28.919Z,62.80
2018-01-08T19:12:02.553Z,62.80
2018-01-08T19:14:36.307Z,62.70
2018-01-08T19:17:10.196Z,62.90
2018-01-08T19:19:44.703Z,62.80
2018-01-08T19:22:18.702Z,62.80
2018-01-08T19:24:52.733Z,62.50
2018-01-08T19:27:26.701Z,62.70
2018-01-08T19:30:00.864Z,62.90
2018-01-08T19:32:35.046Z,62.70
2018-01-08T19:35:08.744Z,63.00
2018-01-08T19:37:43.396Z,62.80
2018-01-08T19:40:17.477Z,62.70
2018-01-08T19:45:50.927Z,62.80
2018-01-08T19:48:24.711Z,62.10
2018-01-08T19:50:58.588Z,63.00
2018-01-08T19:53:32.635Z,62.80
2018-01-08T19:56:06.574Z,62.70
2018-01-08T19:58:40.443Z,62.90
2018-01-08T20:01:14.452Z,62.90
2018-01-08T20:03:48.600Z,62.50
2018-01-08T20:06:22.511Z,62.60
2018-01-08T20:08:56.207Z,62.80
2018-01-08T20:11:29.983Z,62.60
2018-01-08T20:14:03.825Z,62.80
2018-01-08T20:16:38.783Z,62.80
2018-01-08T20:19:12.795Z,62.80
2018-01-08T20:21:46.639Z,63.10
2018-01-08T20:24:20.595Z,62.80
2018-01-08T20:26:54.389Z,63.00
2018-01-08T20:29:28.172Z,62.80
2018-01-08T20:32:02.189Z,62.90
2018-01-08T20:34:36.728Z,62.90
2018-01-08T20:37:10.507Z,63.10
2018-01-08T20:39:45.271Z,63.10
2018-01-08T20:42:19.238Z,63.10
2018-01-08T20:44:53.192Z,62.90
2018-01-08T20:47:27.350Z,63.40
2018-01-08T20:50:02.026Z,63.30
2018-01-08T20:52:35.927Z,63.30
2018-01-08T20:55:09.634Z,63.00
2018-01-08T20:57:43.434Z,62.90
2018-01-08T21:00:17.445Z,63.20
2018-01-08T21:02:51.152Z,63.30
2018-01-08T21:05:24.988Z,63.10
2018-01-08T21:07:58.827Z,63.10
2018-01-08T21:10:32.395Z,63.00
2018-01-08T21:13:06.242Z,63.20
2018-01-08T21:15:40.243Z,63.00
2018-01-08T21:18:14.771Z,63.20
2018-01-08T21:20:48.789Z,63.30
2018-01-08T21:23:23.290Z,63.30
2018-01-08T21:25:57.175Z,63.30
2018-01-08T21:28:31.005Z,63.20
2018-01-08T21:31:05.300Z,63.40
2018-01-08T21:33:39.719Z,63.10
2018-01-08T21:36:13.216Z,63.10
2018-01-08T21:38:47.040Z,63.50
2018-01-08T21:41:21.560Z,63.30
2018-01-08T21:43:56.095Z,63.50
2018-01-08T21:46:29.983Z,63.50
2018-01-08T21:49:03.482Z,63.40
2018-01-08T21:51:37.467Z,63.30
2018-01-08T21:54:11.032Z,63.10
2018-01-08T21:56:44.727Z,63.30
2018-01-08T21:59:19.516Z,63.10
2018-01-08T22:01:53.250Z,63.10
2018-01-08T22:04:27.123Z,63.30
2018-01-08T22:07:01.831Z,63.30
2018-01-08T22:09:35.591Z,63.20
2018-01-08T22:12:09.547Z,63.60
2018-01-08T22:14:43.388Z,63.70
2018-01-08T22:17:17.233Z,63.60
2018-01-08T22:19:50.966Z,63.60
2018-01-08T22:22:24.727Z,63.60
2018-01-08T22:24:58.579Z,63.40
2018-01-08T22:27:32.098Z,63.50
2018-01-08T22:30:05.571Z,63.50
2018-01-08T22:32:39.425Z,63.40
2018-01-08T22:35:13.178Z,63.40
2018-01-08T22:37:46.914Z,63.70
2018-01-08T22:40:20.763Z,63.50
2018-01-08T22:42:55.302Z,63.70
2018-01-08T22:45:29.183Z,63.70
2018-01-08T22:48:02.715Z,63.70
2018-01-08T22:50:36.463Z,63.70
2018-01-08T22:53:11.095Z,63.70
2018-01-08T22:55:45.155Z,63.70
2018-01-08T22:58:18.872Z,63.70
2018-01-08T23:00:52.480Z,63.60
2018-01-08T23:03:26.127Z,63.90
2018-01-08T23:05:59.782Z,64.10
2018-01-08T23:08:33.731Z,64.10
2018-01-08T23:11:07.639Z,64.00
2018-01-08T23:13:41.444Z,64.00
2018-01-08T23:16:15.227Z,64.00
2018-01-08T23:18:49.131Z,63.90
2018-01-08T23:21:23.039Z,64.10
2018-01-08T23:23:56.945Z,64.40
2018-01-08T23:26:30.748Z,64.00
2018-01-08T23:29:04.586Z,64.20
2018-01-08T23:31:39.211Z,64.20
2018-01-08T23:34:13.734Z,63.80
2018-01-08T23:36:47.539Z,64.30
2018-01-08T23:39:22.164Z,64.70
2018-01-08T23:41:55.969Z,64.30
2018-01-08T23:44:29.746Z,63.50
2018-01-08T23:47:03.447Z,64.10
2018-01-08T23:49:38.104Z,65.10
2018-01-08T23:52:11.909Z,64.30
2018-01-08T23:54:45.715Z,64.30
2018-01-08T23:57:19.623Z,64.40
2018-01-08T23:59:53.531Z,64.30
